Time;durP1;ratioP1;P1;durP2;ratioP2;P2;SDS_P1;SDS_P2;PMS_P1;PMS_P2;Temp;Humidity;BMP_temperature;BMP_pressure;BME280_temperature;BME280_humidity;BME280_pressure;Samples;Min_cycle;Max_cycle;Signal;HPM_P1;HPM_P2
2023/11/18 02:26:05;;;;;;;20.63;13.43;;;1.00;99.90;;;;;;4823026;29;20233;-86
2023/11/18 02:50:41;;;;;;;17.80;11.87;;;1.10;99.90;;;;;;4763001;29;20583;-86
2023/11/18 03:11:35;;;;;;;16.13;11.23;;;1.00;99.90;;;;;;4736486;29;20458;-85
2023/11/18 03:31:48;;;;;;;16.23;10.63;;;1.10;99.90;;;;;;5774393;23;20234;-83
2023/11/18 04:02:02;;;;;;;16.63;10.40;;;1.00;99.90;;;;;;4764606;29;20232;-85
2023/11/18 04:32:01;;;;;;;13.53;9.93;;;1.00;99.90;;;;;;4789034;28;20520;-86
2023/11/18 04:52:46;;;;;;;14.87;9.63;;;1.00;99.90;;;;;;4753174;29;20225;-85
2023/11/18 05:18:06;;;;;;;12.83;9.10;;;1.00;99.90;;;;;;4554423;30;20289;-86
2023/11/18 05:38:21;;;;;;;10.67;7.10;;;0.90;99.90;;;;;;4700072;29;20230;-85
2023/11/18 06:09:04;;;;;;;9.40;7.03;;;0.90;99.90;;;;;;4771934;29;20254;-86
2023/11/18 06:13:18;;;;;;;12.47;8.00;;;0.90;99.90;;;;;;4773511;29;20295;-88
2023/11/18 06:39:08;;;;;;;13.67;9.23;;;0.90;99.90;;;;;;4821420;29;20235;-90
2023/11/18 07:14:49;;;;;;;16.37;10.27;;;1.00;99.90;;;;;;4858971;29;20831;-89
2023/11/18 07:40:01;;;;;;;17.00;11.17;;;1.10;99.90;;;;;;4736094;29;20592;-89
2023/11/18 08:00:12;;;;;;;15.60;10.00;;;1.10;99.90;;;;;;4734378;30;20606;-88
2023/11/18 08:40:48;;;;;;;14.97;10.17;;;1.20;99.90;;;;;;4722009;29;20516;-88
2023/11/18 09:10:36;;;;;;;17.03;9.87;;;1.30;99.90;;;;;;4664854;29;20410;-85
2023/11/18 09:31:25;;;;;;;18.23;12.10;;;1.30;99.90;;;;;;4643646;30;20458;-86
2023/11/18 10:01:58;;;;;;;20.33;12.60;;;1.50;99.90;;;;;;4703350;29;20233;-85
2023/11/18 10:26:38;;;;;;;16.83;11.70;;;1.40;99.90;;;;;;4652722;29;20531;-85
2023/11/18 10:47:18;;;;;;;18.20;11.37;;;1.40;99.90;;;;;;4672958;29;20475;-88
2023/11/18 11:17:55;;;;;;;14.33;10.70;;;1.30;99.90;;;;;;4568350;30;20206;-85
2023/11/18 11:38:13;;;;;;;19.47;12.37;;;1.40;99.90;;;;;;4700313;29;20212;-84
2023/11/18 12:08:23;;;;;;;18.87;12.90;;;1.90;99.90;;;;;;4671762;29;20334;-86
2023/11/18 12:49:04;;;;;;;20.67;13.00;;;1.80;99.90;;;;;;4791003;29;20217;-84
2023/11/18 13:19:29;;;;;;;21.77;13.93;;;1.60;99.90;;;;;;4745872;29;20321;-82
2023/11/18 13:49:41;;;;;;;19.93;13.37;;;1.30;99.90;;;;;;4671254;29;20217;-83
2023/11/18 14:45:37;;;;;;;21.10;12.67;;;1.00;99.90;;;;;;4595899;30;20281;-84
2023/11/18 14:55:36;;;;;;;22.43;12.47;;;1.00;99.90;;;;;;5832102;23;20234;-82
2023/11/18 15:20:42;;;;;;;24.10;14.33;;;0.90;99.90;;;;;;4800237;29;20230;-85
2023/11/18 16:01:29;;;;;;;28.97;17.93;;;0.70;99.90;;;;;;4818993;28;20251;-84
2023/11/18 16:31:51;;;;;;;28.00;16.47;;;0.60;99.90;;;;;;4696523;29;20729;-83
2023/11/18 17:07:26;;;;;;;32.77;18.07;;;0.50;99.90;;;;;;4759511;29;20240;-84
2023/11/18 17:11:44;;;;;;;33.27;18.87;;;0.60;99.90;;;;;;4668974;29;20551;-85
2023/11/18 17:32:14;;;;;;;36.30;20.73;;;0.60;99.90;;;;;;4706497;29;20384;-83
2023/11/18 17:52:50;;;;;;;39.53;21.70;;;0.50;99.90;;;;;;4598171;30;20806;-83
2023/11/18 18:17:48;;;;;;;36.87;21.00;;;0.40;99.90;;;;;;4517151;30;20699;-85
2023/11/18 19:03:27;;;;;;;36.03;19.70;;;0.40;99.90;;;;;;4597110;30;20430;-86
2023/11/18 19:39:29;;;;;;;35.07;19.70;;;0.50;99.90;;;;;;4689046;30;21145;-87
2023/11/18 19:43:50;;;;;;;35.23;19.60;;;0.50;99.90;;;;;;4623262;30;21128;-88
2023/11/18 21:53:26;;;;;;;49.77;26.20;;;0.40;99.90;;;;;;6003121;23;20168;-89
2023/11/18 22:19:04;;;;;;;48.23;24.07;;;0.50;99.90;;;;;;5868525;24;20178;-87
2023/11/18 22:48:52;;;;;;;51.67;26.10;;;0.70;99.90;;;;;;5971666;23;20189;-87
2023/11/18 23:45:14;;;;;;;57.90;28.60;;;0.50;99.90;;;;;;6115615;23;20182;-84
